Time;durP1;ratioP1;P1;durP2;ratioP2;P2;SDS_P1;SDS_P2;PMS_P1;PMS_P2;Temp;Humidity;BMP_temperature;BMP_pressure;BME280_temperature;BME280_humidity;BME280_pressure;Samples;Min_cycle;Max_cycle;Signal;HPM_P1;HPM_P2
2022/01/20 05:00:31;;;;;;;10.87;8.70;;;2.90;99.90;;;;;;6048475;23;20561;31
2022/01/20 05:02:58;;;;;;;11.63;8.13;;;2.90;99.90;;;;;;4916662;29;20458;-71
2022/01/20 05:05:25;;;;;;;11.63;8.70;;;3.00;99.90;;;;;;4918239;29;20458;-71
2022/01/20 05:07:52;;;;;;;12.50;8.30;;;2.90;99.90;;;;;;4918819;29;20550;-71
2022/01/20 05:10:20;;;;;;;12.40;9.23;;;3.00;99.90;;;;;;4918144;29;20455;-71
2022/01/20 05:13:05;;;;;;;18.07;10.60;;;2.90;99.90;;;;;;4918437;29;20932;-71
2022/01/20 05:15:33;;;;;;;17.27;10.30;;;3.00;99.90;;;;;;4918865;29;21002;-71
2022/01/20 05:18:01;;;;;;;16.87;10.07;;;3.00;99.90;;;;;;4917586;29;21014;-71
2022/01/20 05:20:28;;;;;;;11.87;9.07;;;3.00;99.90;;;;;;4917954;29;20486;-71
2022/01/20 05:22:55;;;;;;;12.63;7.77;;;3.00;99.90;;;;;;4918226;29;21016;-71
2022/01/20 05:25:22;;;;;;;8.03;6.20;;;3.00;99.90;;;;;;4918227;29;20981;-71
2022/01/20 05:27:48;;;;;;;10.47;7.27;;;3.00;99.90;;;;;;4917965;29;20545;-73
2022/01/20 05:30:15;;;;;;;12.10;8.10;;;3.00;99.90;;;;;;4917515;29;20458;-71
2022/01/20 05:32:44;;;;;;;10.30;8.30;;;3.00;99.90;;;;;;4917873;29;20495;-71
2022/01/20 05:35:11;;;;;;;11.00;8.30;;;3.00;99.90;;;;;;4918274;29;20545;-70
2022/01/20 05:37:38;;;;;;;10.97;8.50;;;3.00;99.90;;;;;;4918008;29;20951;-71
2022/01/20 05:40:06;;;;;;;11.33;8.13;;;2.90;99.90;;;;;;4917808;29;20836;-71
2022/01/20 05:42:35;;;;;;;12.50;9.10;;;2.90;99.90;;;;;;4918262;29;20920;-70
2022/01/20 05:45:03;;;;;;;10.73;8.10;;;2.90;99.90;;;;;;4916893;29;20455;-71
2022/01/20 05:47:32;;;;;;;11.37;8.30;;;2.90;99.90;;;;;;4917852;29;20545;-71
2022/01/20 05:50:00;;;;;;;12.23;8.30;;;2.90;99.90;;;;;;4917924;29;20549;-71
2022/01/20 05:52:27;;;;;;;13.17;7.97;;;2.90;99.90;;;;;;4917627;29;20509;-71
2022/01/20 05:54:54;;;;;;;12.87;8.73;;;2.90;99.90;;;;;;4917619;29;20545;-70
2022/01/20 05:57:21;;;;;;;10.37;7.63;;;2.90;99.90;;;;;;4917813;29;20536;-71
2022/01/20 05:59:48;;;;;;;11.10;7.23;;;2.80;99.90;;;;;;4901930;29;20897;-63
2022/01/20 06:02:29;;;;;;;13.13;7.80;;;2.80;99.90;;;;;;4898625;29;20865;-71
2022/01/20 06:04:56;;;;;;;14.73;7.57;;;2.70;99.90;;;;;;4898408;29;20466;-71
2022/01/20 06:07:26;;;;;;;10.53;8.40;;;2.70;99.90;;;;;;4898238;29;20554;-71
2022/01/20 06:09:53;;;;;;;12.10;8.90;;;2.80;99.90;;;;;;4897845;29;21264;-71
2022/01/20 06:12:20;;;;;;;15.20;9.87;;;2.80;99.90;;;;;;4898517;29;20587;-71
2022/01/20 06:14:46;;;;;;;14.00;9.20;;;2.80;99.90;;;;;;4898431;29;20470;-71
2022/01/20 06:17:14;;;;;;;14.13;9.33;;;2.80;99.90;;;;;;4898254;29;20542;-72
2022/01/20 06:19:40;;;;;;;13.50;8.90;;;2.80;99.90;;;;;;4897944;29;20498;-71
2022/01/20 06:22:10;;;;;;;13.70;8.40;;;2.80;99.90;;;;;;4898011;29;20559;-72
2022/01/20 06:24:38;;;;;;;11.10;9.00;;;2.80;99.90;;;;;;4898035;29;20486;-71
2022/01/20 06:27:05;;;;;;;15.50;9.10;;;2.80;99.90;;;;;;4898045;29;20837;-72
2022/01/20 06:29:32;;;;;;;17.73;10.87;;;2.80;99.90;;;;;;4897937;29;20542;-71
2022/01/20 06:31:59;;;;;;;15.73;9.23;;;2.80;99.90;;;;;;4897747;29;20511;-71
2022/01/20 06:34:26;;;;;;;13.77;9.83;;;2.80;99.90;;;;;;4897909;29;20465;-71
2022/01/20 06:36:52;;;;;;;17.30;10.60;;;2.90;99.90;;;;;;4897797;29;20542;-71
2022/01/20 06:39:19;;;;;;;17.87;10.87;;;2.90;99.90;;;;;;4897469;29;20530;-70
2022/01/20 06:41:48;;;;;;;16.10;9.90;;;2.90;99.90;;;;;;4897726;29;20514;-71
2022/01/20 06:44:15;;;;;;;15.40;10.30;;;2.90;99.90;;;;;;4897618;29;20462;-71
2022/01/20 06:46:41;;;;;;;15.73;10.20;;;2.90;99.90;;;;;;4897494;29;20546;-71
2022/01/20 06:49:10;;;;;;;25.20;10.93;;;2.90;99.90;;;;;;4897359;29;21062;-71
2022/01/20 06:51:37;;;;;;;13.67;9.70;;;2.90;99.90;;;;;;4897229;29;21179;-72
2022/01/20 06:54:04;;;;;;;21.83;10.90;;;3.00;99.90;;;;;;4897657;29;20590;-71
2022/01/20 06:56:32;;;;;;;19.10;11.47;;;2.90;99.90;;;;;;4897567;29;20455;-71
2022/01/20 06:59:00;;;;;;;18.43;11.23;;;2.90;99.90;;;;;;4897440;29;20455;-72
2022/01/20 07:01:27;;;;;;;16.50;10.40;;;2.90;99.90;;;;;;4897352;29;20491;-71
2022/01/20 07:03:54;;;;;;;20.47;11.10;;;2.90;99.90;;;;;;4897435;29;20554;-71
2022/01/20 07:06:21;;;;;;;22.80;12.07;;;2.90;99.90;;;;;;4897877;29;20494;-71
2022/01/20 07:08:48;;;;;;;18.83;11.90;;;2.90;99.90;;;;;;4897338;29;20550;-74
2022/01/20 07:11:15;;;;;;;21.33;11.23;;;2.90;99.90;;;;;;4897256;29;20468;-71
2022/01/20 07:13:42;;;;;;;22.00;11.97;;;2.90;99.90;;;;;;4902409;29;20597;-72
2022/01/20 07:16:10;;;;;;;21.30;11.77;;;2.90;99.90;;;;;;4905816;29;20535;-72
2022/01/20 07:18:37;;;;;;;20.03;11.47;;;2.80;99.90;;;;;;4905586;29;20479;-71
2022/01/20 07:21:04;;;;;;;20.40;11.03;;;2.80;99.90;;;;;;4899555;29;20551;-72
2022/01/20 07:23:31;;;;;;;20.47;10.77;;;2.80;99.90;;;;;;4897258;29;20462;-72
2022/01/20 07:25:58;;;;;;;16.30;11.23;;;2.90;99.90;;;;;;4897149;29;20542;-72
2022/01/20 07:28:25;;;;;;;22.67;11.97;;;2.80;99.90;;;;;;4906791;29;20475;-72
2022/01/20 07:30:52;;;;;;;21.03;11.27;;;2.90;99.90;;;;;;4905760;29;20558;-72
2022/01/20 07:33:20;;;;;;;22.07;11.77;;;2.90;99.90;;;;;;4905020;29;20516;-72
2022/01/20 07:35:47;;;;;;;20.67;11.07;;;2.90;99.90;;;;;;4906986;29;20446;-71
2022/01/20 07:38:14;;;;;;;24.23;10.70;;;2.90;99.90;;;;;;4907160;29;20479;-71
2022/01/20 07:40:41;;;;;;;20.77;9.73;;;2.90;99.90;;;;;;4906655;29;20466;-71
2022/01/20 07:43:08;;;;;;;18.27;9.80;;;2.80;99.90;;;;;;4906986;29;20525;-72
2022/01/20 07:45:36;;;;;;;17.10;10.13;;;2.80;99.90;;;;;;4906157;29;21003;-71
2022/01/20 07:48:03;;;;;;;23.17;10.17;;;2.80;99.90;;;;;;4905044;29;20459;-72
2022/01/20 07:50:31;;;;;;;11.93;8.80;;;2.80;99.90;;;;;;4906093;29;20534;-72
2022/01/20 07:52:58;;;;;;;17.87;9.13;;;2.90;99.90;;;;;;4906374;29;20570;-72
2022/01/20 07:55:25;;;;;;;12.90;8.80;;;2.90;99.90;;;;;;4906926;29;20495;-74
2022/01/20 07:57:52;;;;;;;18.23;8.50;;;2.90;99.90;;;;;;4905726;29;20538;-72
2022/01/20 08:00:19;;;;;;;11.67;8.73;;;2.90;99.90;;;;;;4912141;29;21007;-72
2022/01/20 08:02:46;;;;;;;16.77;9.57;;;2.90;99.90;;;;;;4915816;29;20513;-73
2022/01/20 08:05:13;;;;;;;12.90;8.40;;;2.90;99.90;;;;;;4915772;29;20542;-72
2022/01/20 08:07:42;;;;;;;14.73;9.50;;;2.90;99.90;;;;;;4915656;29;20587;-72
2022/01/20 08:10:12;;;;;;;20.40;10.07;;;2.90;99.90;;;;;;4919156;29;20886;-73
2022/01/20 08:12:39;;;;;;;20.17;9.87;;;2.90;99.90;;;;;;4919257;29;20517;-72
2022/01/20 08:15:09;;;;;;;24.90;15.40;;;2.90;99.90;;;;;;4919229;29;20541;-72
2022/01/20 08:17:36;;;;;;;55.07;36.50;;;2.90;99.90;;;;;;4919605;29;20458;-73
2022/01/20 08:20:04;;;;;;;17.23;10.67;;;2.90;99.90;;;;;;4919173;29;20463;-73
2022/01/20 08:22:34;;;;;;;28.70;13.83;;;2.90;99.90;;;;;;4919166;29;20501;-72
2022/01/20 08:25:02;;;;;;;46.67;28.00;;;2.90;99.90;;;;;;4919250;29;20951;-73
2022/01/20 08:27:29;;;;;;;16.77;10.37;;;2.90;99.90;;;;;;4918977;29;20490;-72
2022/01/20 08:29:56;;;;;;;19.40;9.77;;;2.90;99.90;;;;;;4918880;29;21195;-73
2022/01/20 08:32:22;;;;;;;25.13;12.13;;;2.90;99.90;;;;;;4919243;29;20558;-72
2022/01/20 08:34:50;;;;;;;19.60;9.90;;;2.90;99.90;;;;;;4919118;29;20494;-73
2022/01/20 08:37:17;;;;;;;19.37;10.27;;;2.90;99.90;;;;;;4918988;29;20550;-72
2022/01/20 08:39:44;;;;;;;18.93;12.20;;;3.00;99.90;;;;;;4918742;29;20521;-73
2022/01/20 08:42:16;;;;;;;17.57;11.63;;;3.00;99.90;;;;;;4919003;29;20490;-72
2022/01/20 08:44:43;;;;;;;18.03;9.23;;;3.10;99.90;;;;;;4919117;29;20489;-72
2022/01/20 08:47:16;;;;;;;13.90;9.73;;;3.10;99.90;;;;;;4918988;29;20967;-73
2022/01/20 08:49:43;;;;;;;19.00;10.50;;;3.10;99.90;;;;;;4918598;29;20454;-73
2022/01/20 08:52:10;;;;;;;14.30;8.20;;;3.00;99.90;;;;;;4918758;29;20521;-73
2022/01/20 08:54:37;;;;;;;16.87;10.73;;;3.00;99.90;;;;;;4918494;29;21096;-72
2022/01/20 08:57:05;;;;;;;32.73;10.97;;;3.00;99.90;;;;;;4918713;29;20462;-72
2022/01/20 08:59:33;;;;;;;20.50;9.50;;;3.10;99.90;;;;;;4918165;29;20545;-72
2022/01/20 09:02:00;;;;;;;17.60;8.40;;;3.10;99.90;;;;;;4918039;29;20568;-73
2022/01/20 09:04:27;;;;;;;24.63;11.40;;;3.10;99.90;;;;;;4918272;29;20545;-73
2022/01/20 09:06:54;;;;;;;18.70;10.03;;;3.10;99.90;;;;;;4918234;29;20493;-73
2022/01/20 09:09:21;;;;;;;16.50;10.50;;;3.10;99.90;;;;;;4918400;29;20486;-73
2022/01/20 09:12:04;;;;;;;16.60;10.10;;;3.20;99.90;;;;;;4918477;29;20511;-73
2022/01/20 09:17:17;;;;;;;21.40;10.50;;;3.20;99.90;;;;;;4918253;29;20514;-73
2022/01/20 09:19:44;;;;;;;12.70;8.47;;;3.20;99.90;;;;;;4916984;29;20501;-72
2022/01/20 09:22:12;;;;;;;17.40;10.27;;;3.20;99.90;;;;;;4918063;29;20537;-73
2022/01/20 09:24:39;;;;;;;15.60;9.50;;;3.30;99.90;;;;;;4918288;29;20501;-73
2022/01/20 09:27:06;;;;;;;13.80;9.37;;;3.40;99.90;;;;;;4918090;29;20545;-73
2022/01/20 09:29:35;;;;;;;17.77;10.23;;;3.40;99.90;;;;;;4917927;29;20971;-73
2022/01/20 09:32:04;;;;;;;19.00;9.33;;;3.40;99.90;;;;;;4917756;29;20664;-72
2022/01/20 09:34:31;;;;;;;19.57;10.00;;;3.50;99.90;;;;;;4917845;29;20615;-72
2022/01/20 09:36:58;;;;;;;24.87;10.50;;;3.50;99.90;;;;;;4918101;29;20490;-72
2022/01/20 09:39:25;;;;;;;31.53;9.03;;;3.50;99.90;;;;;;4917635;29;20505;-73
2022/01/20 09:41:52;;;;;;;22.20;9.87;;;3.50;99.90;;;;;;4917786;29;20570;-73
2022/01/20 09:44:19;;;;;;;15.80;8.93;;;3.50;99.90;;;;;;4917692;29;20542;-73
2022/01/20 09:46:48;;;;;;;13.10;8.70;;;3.60;99.90;;;;;;4917634;29;20497;-72
2022/01/20 09:49:15;;;;;;;15.40;8.93;;;3.50;99.90;;;;;;4917641;29;20542;-73
2022/01/20 09:51:43;;;;;;;19.73;10.33;;;3.60;99.90;;;;;;4917789;29;20569;-73
2022/01/20 09:54:11;;;;;;;24.40;10.07;;;3.60;99.90;;;;;;4917877;29;20504;-72
2022/01/20 09:56:39;;;;;;;14.50;8.33;;;3.70;99.90;;;;;;4917634;29;20561;-72
2022/01/20 09:59:06;;;;;;;18.37;8.50;;;3.70;99.90;;;;;;4917343;29;20466;-73
2022/01/20 10:01:38;;;;;;;14.90;9.60;;;3.70;99.90;;;;;;4917398;29;20493;-72
2022/01/20 10:04:06;;;;;;;20.37;8.70;;;3.70;99.90;;;;;;4917691;29;20868;-73
2022/01/20 10:06:34;;;;;;;12.30;7.80;;;3.70;99.90;;;;;;4917437;29;20923;-72
2022/01/20 10:09:02;;;;;;;13.43;7.30;;;3.80;99.90;;;;;;4917257;29;20458;-73
2022/01/20 10:11:30;;;;;;;14.87;8.73;;;3.90;99.90;;;;;;4917072;29;20514;-73
2022/01/20 10:13:59;;;;;;;12.43;7.67;;;3.90;99.90;;;;;;4917245;29;20861;-73
2022/01/20 10:16:27;;;;;;;17.33;7.17;;;4.00;99.90;;;;;;4911146;29;20448;-73
2022/01/20 10:18:57;;;;;;;13.77;7.30;;;4.00;99.90;;;;;;4901103;29;20543;-73
2022/01/20 10:21:33;;;;;;;18.87;8.20;;;4.00;99.90;;;;;;4898188;29;20483;-73
2022/01/20 10:24:06;;;;;;;12.20;7.13;;;4.00;99.90;;;;;;4898090;29;20491;-72
2022/01/20 10:26:33;;;;;;;16.77;9.17;;;4.00;99.90;;;;;;4898310;29;20451;-72
2022/01/20 10:29:02;;;;;;;22.50;7.20;;;4.00;99.90;;;;;;4898021;29;20498;-72
2022/01/20 10:31:41;;;;;;;16.80;7.20;;;4.10;99.90;;;;;;4897581;29;20511;-73
2022/01/20 10:34:19;;;;;;;17.03;8.27;;;4.20;99.90;;;;;;4898033;29;20494;-73
2022/01/20 10:36:51;;;;;;;19.30;8.67;;;4.20;99.90;;;;;;4898056;29;20995;-73
2022/01/20 10:39:19;;;;;;;17.83;6.60;;;4.30;99.90;;;;;;4898090;29;20459;-73
2022/01/20 10:41:46;;;;;;;11.93;6.77;;;4.40;99.90;;;;;;4897843;29;21072;-72
2022/01/20 10:44:15;;;;;;;13.43;6.10;;;4.40;99.90;;;;;;4897995;29;20536;-72
2022/01/20 10:46:47;;;;;;;12.40;6.03;;;4.40;99.90;;;;;;4897878;29;21031;-72
2022/01/20 10:49:14;;;;;;;10.20;5.40;;;4.20;99.90;;;;;;4897508;29;20497;-73
2022/01/20 10:51:43;;;;;;;13.50;5.93;;;4.10;99.90;;;;;;4897948;29;20563;-73
2022/01/20 10:54:14;;;;;;;10.33;5.70;;;4.20;99.90;;;;;;4897804;29;21087;-72
2022/01/20 10:56:48;;;;;;;7.87;5.83;;;4.20;99.90;;;;;;4897583;29;20455;-73
2022/01/20 10:59:15;;;;;;;15.50;6.80;;;4.20;99.90;;;;;;4897556;29;20454;-73
2022/01/20 11:01:42;;;;;;;18.73;6.80;;;4.30;99.90;;;;;;4911177;29;20585;-73
2022/01/20 11:04:10;;;;;;;12.83;6.10;;;4.30;99.90;;;;;;4908933;29;20881;-73
2022/01/20 11:06:37;;;;;;;19.97;6.50;;;4.30;99.90;;;;;;4904286;29;20983;-73
2022/01/20 11:09:07;;;;;;;11.40;5.50;;;4.30;99.90;;;;;;4897215;29;20547;-73
2022/01/20 11:11:36;;;;;;;12.23;7.10;;;4.30;99.90;;;;;;4897382;29;20980;-73
2022/01/20 11:14:03;;;;;;;20.53;6.37;;;4.20;99.90;;;;;;4897166;29;20587;-74
2022/01/20 11:16:38;;;;;;;16.83;7.10;;;4.20;99.90;;;;;;4897935;29;20584;-74
2022/01/20 11:19:15;;;;;;;14.43;6.47;;;4.10;99.90;;;;;;4896790;29;20493;-74
2022/01/20 11:21:44;;;;;;;14.87;6.60;;;4.10;99.90;;;;;;4897085;29;20487;-74
2022/01/20 11:24:21;;;;;;;12.27;7.10;;;4.10;99.90;;;;;;4897337;29;20467;-74
2022/01/20 11:26:57;;;;;;;16.20;6.60;;;4.10;99.90;;;;;;4897273;29;20459;-74
2022/01/20 11:29:26;;;;;;;11.77;7.30;;;4.10;99.90;;;;;;4897111;29;20970;-74
2022/01/20 11:31:53;;;;;;;16.47;7.00;;;4.10;99.90;;;;;;4897317;29;20480;-74
2022/01/20 11:34:23;;;;;;;10.37;6.40;;;4.20;99.90;;;;;;4896950;29;20495;-73
2022/01/20 11:36:50;;;;;;;11.87;5.37;;;4.20;99.90;;;;;;4897125;29;20455;-74
2022/01/20 11:39:20;;;;;;;8.27;5.20;;;4.30;99.90;;;;;;4897078;29;20590;-74
2022/01/20 11:41:49;;;;;;;14.03;5.00;;;4.30;99.90;;;;;;4897164;29;20474;-74
2022/01/20 11:44:19;;;;;;;10.17;5.20;;;4.30;99.90;;;;;;4896624;29;20459;-74
2022/01/20 11:46:48;;;;;;;9.93;4.90;;;4.40;99.90;;;;;;4896910;29;20883;-74
2022/01/20 11:49:18;;;;;;;12.73;4.33;;;4.40;99.90;;;;;;4903676;29;20451;-74
2022/01/20 11:51:48;;;;;;;12.07;4.80;;;4.30;99.90;;;;;;4915397;29;20585;-74
2022/01/20 11:54:26;;;;;;;12.63;4.60;;;4.20;99.90;;;;;;4915444;29;20531;-74
2022/01/20 11:57:04;;;;;;;12.73;6.40;;;4.20;99.90;;;;;;4915759;29;20533;-74
2022/01/20 11:59:42;;;;;;;12.90;10.57;;;4.10;99.90;;;;;;4915384;29;21019;-74
2022/01/20 12:02:10;;;;;;;8.73;5.37;;;4.00;99.90;;;;;;4915294;29;20494;-74
2022/01/20 12:04:38;;;;;;;12.30;6.40;;;3.70;99.90;;;;;;4915841;29;20494;-74
2022/01/20 12:07:08;;;;;;;14.27;8.50;;;3.50;99.90;;;;;;4915448;29;20530;-65
2022/01/20 12:09:37;;;;;;;11.93;6.10;;;3.40;99.90;;;;;;4915252;29;20486;-66
2022/01/20 12:12:04;;;;;;;10.90;6.07;;;3.30;99.90;;;;;;4914494;29;20474;-65
2022/01/20 12:14:36;;;;;;;8.03;5.90;;;3.30;99.90;;;;;;4914594;29;20493;-65
2022/01/20 12:17:07;;;;;;;10.73;5.67;;;3.30;99.90;;;;;;4915189;29;21011;-65
2022/01/20 12:19:34;;;;;;;10.33;7.00;;;3.40;99.90;;;;;;4914584;29;20971;-74
2022/01/20 12:22:04;;;;;;;11.73;7.43;;;3.40;99.90;;;;;;4914428;29;20562;-74
2022/01/20 12:24:32;;;;;;;24.83;14.57;;;3.50;99.90;;;;;;4914572;29;20458;-74
2022/01/20 12:26:59;;;;;;;20.10;14.30;;;3.50;99.90;;;;;;4914291;29;20549;-74
2022/01/20 12:29:35;;;;;;;31.87;23.57;;;3.60;99.90;;;;;;4914353;29;20454;-74
2022/01/20 12:32:02;;;;;;;20.67;15.73;;;3.60;99.90;;;;;;4913961;29;20486;-75
2022/01/20 12:34:30;;;;;;;39.30;26.23;;;3.60;99.90;;;;;;4914288;29;20902;-74
2022/01/20 12:36:59;;;;;;;65.77;44.03;;;3.60;99.90;;;;;;4914269;29;20541;-74
2022/01/20 12:39:28;;;;;;;33.70;24.30;;;3.50;99.90;;;;;;4913863;29;20465;-74
2022/01/20 12:42:00;;;;;;;46.97;30.53;;;3.60;99.90;;;;;;4914592;29;20478;-74
2022/01/20 12:44:39;;;;;;;76.97;44.10;;;3.60;99.90;;;;;;4914662;29;20474;-74
2022/01/20 12:47:06;;;;;;;63.47;34.30;;;3.60;99.90;;;;;;4914515;29;20443;-74
2022/01/20 12:49:34;;;;;;;32.97;21.07;;;3.60;99.90;;;;;;4914139;29;20553;-74
2022/01/20 12:52:06;;;;;;;17.27;10.47;;;3.70;99.90;;;;;;4913977;29;20557;-74
2022/01/20 12:54:35;;;;;;;110.63;71.57;;;3.60;99.90;;;;;;4915185;29;20959;-75
2022/01/20 12:57:05;;;;;;;19.77;11.57;;;3.60;99.90;;;;;;4917874;29;21037;-74
2022/01/20 12:59:34;;;;;;;198.73;116.57;;;3.60;99.90;;;;;;4918652;29;20557;-74
2022/01/20 13:02:02;;;;;;;27.23;18.80;;;3.60;99.90;;;;;;4918276;29;20522;-73
2022/01/20 13:04:33;;;;;;;19.17;9.70;;;3.60;99.90;;;;;;4918585;29;20479;-73
2022/01/20 13:07:03;;;;;;;27.53;15.30;;;3.60;99.90;;;;;;4918685;29;20469;-73
2022/01/20 13:09:41;;;;;;;37.17;30.53;;;3.60;99.90;;;;;;4918165;29;20465;-73
2022/01/20 13:12:09;;;;;;;13.77;8.40;;;3.60;99.90;;;;;;4918248;29;20478;-74
2022/01/20 13:14:38;;;;;;;9.53;5.30;;;3.60;99.90;;;;;;4917388;29;20613;-74
2022/01/20 13:17:07;;;;;;;11.73;5.10;;;3.70;99.90;;;;;;4917781;29;20959;-74
2022/01/20 13:19:40;;;;;;;18.87;3.80;;;3.60;99.90;;;;;;4917856;29;20454;-74
2022/01/20 13:22:20;;;;;;;17.60;4.20;;;3.50;99.90;;;;;;4917541;29;20474;-74
2022/01/20 13:24:47;;;;;;;9.33;4.07;;;3.30;99.90;;;;;;4917835;29;20457;-74
2022/01/20 13:27:14;;;;;;;18.30;4.03;;;3.30;99.90;;;;;;4917893;29;20550;-74
2022/01/20 13:29:44;;;;;;;8.87;4.10;;;3.20;99.90;;;;;;4917949;29;20481;-74
2022/01/20 13:32:12;;;;;;;14.53;8.00;;;3.10;99.90;;;;;;4918164;29;20474;-74
2022/01/20 13:34:38;;;;;;;25.60;7.67;;;3.20;99.90;;;;;;4918021;29;20584;-74
2022/01/20 13:37:13;;;;;;;19.20;7.43;;;3.10;99.90;;;;;;4918165;29;20478;-74
2022/01/20 13:39:42;;;;;;;15.33;6.33;;;3.10;99.90;;;;;;4917710;29;20943;-74
2022/01/20 13:42:23;;;;;;;15.60;7.73;;;3.20;99.90;;;;;;4917775;29;20563;-74
2022/01/20 13:45:14;;;;;;;11.40;4.40;;;3.10;99.90;;;;;;4918140;29;20450;-74
2022/01/20 13:47:53;;;;;;;11.20;4.70;;;3.10;99.90;;;;;;4917976;29;20474;-73
2022/01/20 13:50:21;;;;;;;16.40;5.13;;;3.00;99.90;;;;;;4917239;29;20455;-74
2022/01/20 13:52:49;;;;;;;12.67;4.90;;;3.00;99.90;;;;;;4917945;29;20647;-74
2022/01/20 13:55:24;;;;;;;11.40;5.97;;;3.00;99.90;;;;;;4917607;29;20585;-74
2022/01/20 13:57:52;;;;;;;18.63;6.43;;;3.00;99.90;;;;;;4917731;29;20895;-74
2022/01/20 14:00:21;;;;;;;9.17;4.70;;;3.00;99.90;;;;;;4917337;29;20455;-74
2022/01/20 14:02:49;;;;;;;22.10;5.80;;;3.00;99.90;;;;;;4917569;29;20537;-74
2022/01/20 14:05:16;;;;;;;18.13;5.97;;;2.90;99.90;;;;;;4917678;29;20541;-73
2022/01/20 14:07:43;;;;;;;12.67;4.50;;;2.90;99.90;;;;;;4916975;29;20497;-73
2022/01/20 14:10:11;;;;;;;12.20;5.67;;;2.90;99.90;;;;;;4917045;29;20975;-74
2022/01/20 14:12:39;;;;;;;10.50;5.40;;;3.00;99.90;;;;;;4917293;29;20537;-74
2022/01/20 14:15:07;;;;;;;8.73;4.80;;;2.90;99.90;;;;;;4917312;29;20530;-74
2022/01/20 14:17:37;;;;;;;15.03;5.27;;;2.80;99.90;;;;;;4917123;29;20501;-74
2022/01/20 14:20:07;;;;;;;8.20;4.83;;;2.80;99.90;;;;;;4917152;29;20470;-74
2022/01/20 14:22:35;;;;;;;23.50;9.93;;;2.70;99.90;;;;;;4917210;29;20517;-74
2022/01/20 14:25:02;;;;;;;18.07;12.67;;;2.70;99.90;;;;;;4917295;29;20459;-74
2022/01/20 14:27:29;;;;;;;14.13;7.83;;;2.60;99.90;;;;;;4916882;29;20473;-74
2022/01/20 14:29:57;;;;;;;20.23;8.50;;;2.70;99.90;;;;;;4916665;29;20537;-74
2022/01/20 14:32:25;;;;;;;18.07;11.00;;;2.80;99.90;;;;;;4917284;29;20541;-74
2022/01/20 14:34:52;;;;;;;22.13;13.80;;;2.70;99.90;;;;;;4916915;29;21083;-74
2022/01/20 14:37:19;;;;;;;11.07;6.67;;;2.70;99.90;;;;;;4916932;29;20490;-74
2022/01/20 14:39:46;;;;;;;15.43;10.40;;;2.70;99.90;;;;;;4916585;29;20501;-73
2022/01/20 14:42:14;;;;;;;14.43;6.70;;;2.70;99.90;;;;;;4916719;29;20558;-73
2022/01/20 14:44:42;;;;;;;15.27;9.83;;;2.70;99.90;;;;;;4916388;29;20514;-73
2022/01/20 14:47:10;;;;;;;11.93;6.60;;;2.70;99.90;;;;;;4916752;29;20490;-73
2022/01/20 14:49:38;;;;;;;14.07;5.70;;;2.70;99.90;;;;;;4916376;29;20930;-73
2022/01/20 14:52:09;;;;;;;14.33;8.50;;;2.60;99.90;;;;;;4914772;29;20558;-74
2022/01/20 14:54:39;;;;;;;15.97;7.13;;;2.60;99.90;;;;;;4907459;29;20979;-74
2022/01/20 14:57:06;;;;;;;12.57;6.33;;;2.60;99.90;;;;;;4914275;29;20471;-74
2022/01/20 14:59:33;;;;;;;15.50;7.27;;;2.60;99.90;;;;;;4915243;29;20828;-74
2022/01/20 15:02:00;;;;;;;17.17;9.50;;;2.60;99.90;;;;;;4916352;29;20482;-74
2022/01/20 15:04:29;;;;;;;24.17;8.50;;;2.60;99.90;;;;;;4916696;29;20458;-74
2022/01/20 15:06:56;;;;;;;13.83;8.30;;;2.70;99.90;;;;;;4916421;29;20537;-74
2022/01/20 15:09:22;;;;;;;16.17;8.23;;;2.80;99.90;;;;;;4916015;29;20491;-74
2022/01/20 15:11:50;;;;;;;11.73;6.67;;;2.80;99.90;;;;;;4916183;29;20562;-74
2022/01/20 15:14:17;;;;;;;21.93;6.97;;;2.80;99.90;;;;;;4916432;29;20974;-74
2022/01/20 15:16:44;;;;;;;19.07;6.43;;;2.80;99.90;;;;;;4916041;29;21080;-74
2022/01/20 15:19:13;;;;;;;17.23;9.97;;;2.80;99.90;;;;;;4916008;29;20538;-74
2022/01/20 15:21:43;;;;;;;15.53;7.00;;;2.70;99.90;;;;;;4915985;29;20510;-74
2022/01/20 15:24:10;;;;;;;13.73;7.87;;;2.80;99.90;;;;;;4915958;29;20462;-74
2022/01/20 15:26:37;;;;;;;21.83;9.93;;;2.80;99.90;;;;;;4915990;29;20486;-74
2022/01/20 15:29:05;;;;;;;14.80;6.77;;;2.80;99.90;;;;;;4915961;29;20497;-65
2022/01/20 15:31:36;;;;;;;20.13;10.80;;;2.80;99.90;;;;;;4915915;29;20558;-65
2022/01/20 15:34:03;;;;;;;15.93;6.63;;;2.70;99.90;;;;;;4915948;29;20830;-65
2022/01/20 15:36:31;;;;;;;49.37;24.50;;;2.70;99.90;;;;;;4915565;29;20522;-65
2022/01/20 15:39:00;;;;;;;57.83;22.20;;;2.70;99.90;;;;;;4908818;29;20495;-74
2022/01/20 15:41:27;;;;;;;19.77;9.67;;;2.70;99.90;;;;;;4914275;29;20845;-74
2022/01/20 15:43:54;;;;;;;30.30;19.73;;;2.70;99.90;;;;;;4915371;29;20533;-74
2022/01/20 15:46:21;;;;;;;13.00;6.63;;;2.70;99.90;;;;;;4915752;29;20541;-74
2022/01/20 15:48:48;;;;;;;11.30;6.40;;;2.70;99.90;;;;;;4915607;29;20497;-74
2022/01/20 15:51:16;;;;;;;9.10;4.83;;;2.70;99.90;;;;;;4915569;29;20574;-74
2022/01/20 15:53:43;;;;;;;10.00;4.97;;;2.60;99.90;;;;;;4915741;29;20479;-74
2022/01/20 15:56:11;;;;;;;12.53;4.10;;;2.60;99.90;;;;;;4905957;29;20582;-74
2022/01/20 15:58:38;;;;;;;10.87;3.87;;;2.60;99.90;;;;;;4896042;29;20555;-74
2022/01/20 16:01:08;;;;;;;12.07;4.63;;;2.50;99.90;;;;;;4895356;29;20958;-74
2022/01/20 16:03:36;;;;;;;15.07;7.20;;;2.50;99.90;;;;;;4895591;29;20466;-74
2022/01/20 16:06:03;;;;;;;21.63;8.90;;;2.60;99.90;;;;;;4895642;29;20524;-74
2022/01/20 16:08:30;;;;;;;19.43;10.63;;;2.60;99.90;;;;;;4895853;29;20497;-74
2022/01/20 16:10:57;;;;;;;16.67;9.23;;;2.50;99.90;;;;;;4895860;29;20534;-74
2022/01/20 16:13:25;;;;;;;78.27;39.97;;;2.50;99.90;;;;;;4895740;29;20491;-74
2022/01/20 16:15:52;;;;;;;15.40;8.67;;;2.40;99.90;;;;;;4895705;29;21102;-74
2022/01/20 16:18:20;;;;;;;109.03;59.13;;;2.40;99.90;;;;;;4901615;29;21004;-74
2022/01/20 16:20:48;;;;;;;40.83;27.00;;;2.40;99.90;;;;;;4905597;29;20481;-74
2022/01/20 16:23:15;;;;;;;20.50;13.80;;;2.30;99.90;;;;;;4903338;29;20877;-74
2022/01/20 16:25:42;;;;;;;19.17;12.33;;;2.30;99.90;;;;;;4895625;29;20964;-74
2022/01/20 16:28:10;;;;;;;11.03;7.63;;;2.30;99.90;;;;;;4895611;29;20459;-74
2022/01/20 16:30:38;;;;;;;12.17;7.47;;;2.30;99.90;;;;;;4897789;29;20542;-74
2022/01/20 16:33:05;;;;;;;17.83;7.10;;;2.30;99.90;;;;;;4899627;29;20544;-75
2022/01/20 16:35:33;;;;;;;14.00;7.80;;;2.30;99.90;;;;;;4899289;29;20585;-74
2022/01/20 16:38:00;;;;;;;17.60;11.10;;;2.30;99.90;;;;;;4899373;29;20531;-74
2022/01/20 16:40:28;;;;;;;14.80;7.00;;;2.40;99.90;;;;;;4899524;29;20455;-74
2022/01/20 16:42:55;;;;;;;12.80;10.07;;;2.30;99.90;;;;;;4900151;29;20550;-74
2022/01/20 16:45:23;;;;;;;7.80;5.40;;;2.30;99.90;;;;;;4899429;29;20547;-74
2022/01/20 16:47:51;;;;;;;11.90;4.97;;;2.30;99.90;;;;;;4899392;29;20458;-74
2022/01/20 16:50:20;;;;;;;12.60;5.90;;;2.20;99.90;;;;;;4899828;29;20486;-74
2022/01/20 16:52:47;;;;;;;11.33;6.43;;;2.30;99.90;;;;;;4900042;29;20836;-74
2022/01/20 16:55:14;;;;;;;10.00;4.70;;;2.30;99.90;;;;;;4899882;29;20550;-74
2022/01/20 16:57:41;;;;;;;9.20;5.07;;;2.30;99.90;;;;;;4899790;29;20462;-74
2022/01/20 17:00:11;;;;;;;8.13;4.20;;;2.30;99.90;;;;;;4899626;29;20506;-74
2022/01/20 17:02:49;;;;;;;19.03;3.87;;;2.30;99.90;;;;;;4899798;29;20538;-74
2022/01/20 17:05:18;;;;;;;5.50;3.33;;;2.30;99.90;;;;;;4901054;29;20459;-74
2022/01/20 17:07:46;;;;;;;10.57;5.00;;;2.30;99.90;;;;;;4898732;29;20550;-74
2022/01/20 17:10:13;;;;;;;13.93;6.47;;;2.30;99.90;;;;;;4898257;29;21060;-74
2022/01/20 17:12:40;;;;;;;10.23;5.63;;;2.30;99.90;;;;;;4898607;29;20546;-74
2022/01/20 17:15:07;;;;;;;8.40;4.23;;;2.30;99.90;;;;;;4899125;29;20459;-74
2022/01/20 17:17:34;;;;;;;8.93;8.00;;;2.30;99.90;;;;;;4898416;29;20499;-74
2022/01/20 17:20:01;;;;;;;4.43;4.03;;;2.30;99.90;;;;;;4898460;29;20474;-74
2022/01/20 17:22:30;;;;;;;7.57;4.57;;;2.30;99.90;;;;;;4898357;29;20506;-74
2022/01/20 17:24:56;;;;;;;10.77;5.50;;;2.30;99.90;;;;;;4898322;29;20469;-74
2022/01/20 17:27:23;;;;;;;11.47;5.73;;;2.20;99.90;;;;;;4898512;29;20553;-74
2022/01/20 17:29:50;;;;;;;15.47;6.23;;;2.20;99.90;;;;;;4898053;29;20547;-74
2022/01/20 17:32:18;;;;;;;8.80;4.63;;;2.20;99.90;;;;;;4898267;29;20531;-74
2022/01/20 17:34:45;;;;;;;8.77;5.07;;;2.20;99.90;;;;;;4898260;29;20464;-74
2022/01/20 17:37:12;;;;;;;17.50;8.50;;;2.20;99.90;;;;;;4898123;29;20531;-74
2022/01/20 17:39:40;;;;;;;12.60;8.07;;;2.20;99.90;;;;;;4898079;29;20501;-74
2022/01/20 17:42:07;;;;;;;11.07;4.57;;;2.10;99.90;;;;;;4897277;29;20526;-73
2022/01/20 17:44:34;;;;;;;9.67;4.20;;;2.00;99.90;;;;;;4898189;29;20506;-74
2022/01/20 17:47:01;;;;;;;11.70;4.20;;;2.00;99.90;;;;;;4898168;29;20539;-74
2022/01/20 17:49:28;;;;;;;15.83;6.37;;;2.00;99.90;;;;;;4897878;29;20487;-74
2022/01/20 17:51:56;;;;;;;16.73;10.03;;;2.00;99.90;;;;;;4897830;29;20563;-74
2022/01/20 17:54:23;;;;;;;10.27;6.10;;;2.00;99.90;;;;;;4897910;29;20440;-73